sensor_id;sensor_type;location;lat;lon;timestamp;P1;durP1;ratioP1;P2;durP2;ratioP2
39518;SDS011;25200;53.394;10.414;2023-02-28T00:00:20;9.35;;;4.20;;
39518;SDS011;25200;53.394;10.414;2023-02-28T00:02:46;10.95;;;4.32;;
39518;SDS011;25200;53.394;10.414;2023-02-28T00:05:13;13.05;;;3.90;;
39518;SDS011;25200;53.394;10.414;2023-02-28T00:07:41;9.50;;;4.00;;
39518;SDS011;25200;53.394;10.414;2023-02-28T00:10:12;11.18;;;4.30;;
39518;SDS011;25200;53.394;10.414;2023-02-28T00:12:39;9.57;;;4.47;;
39518;SDS011;25200;53.394;10.414;2023-02-28T00:15:05;10.05;;;3.70;;
39518;SDS011;25200;53.394;10.414;2023-02-28T00:17:33;11.70;;;4.18;;
39518;SDS011;25200;53.394;10.414;2023-02-28T00:19:58;9.98;;;4.45;;
39518;SDS011;25200;53.394;10.414;2023-02-28T00:22:27;12.13;;;4.25;;
39518;SDS011;25200;53.394;10.414;2023-02-28T00:24:53;10.70;;;4.22;;
39518;SDS011;25200;53.394;10.414;2023-02-28T00:27:19;8.88;;;4.10;;
39518;SDS011;25200;53.394;10.414;2023-02-28T00:29:46;11.20;;;4.53;;
39518;SDS011;25200;53.394;10.414;2023-02-28T00:32:12;9.82;;;4.97;;
39518;SDS011;25200;53.394;10.414;2023-02-28T00:34:38;10.25;;;4.78;;
39518;SDS011;25200;53.394;10.414;2023-02-28T00:37:04;11.20;;;4.90;;
39518;SDS011;25200;53.394;10.414;2023-02-28T00:39:33;11.75;;;5.10;;
39518;SDS011;25200;53.394;10.414;2023-02-28T00:41:59;9.60;;;4.95;;
39518;SDS011;25200;53.394;10.414;2023-02-28T00:44:24;15.35;;;5.57;;
39518;SDS011;25200;53.394;10.414;2023-02-28T00:46:50;14.68;;;5.57;;
39518;SDS011;25200;53.394;10.414;2023-02-28T00:49:16;13.13;;;5.18;;
39518;SDS011;25200;53.394;10.414;2023-02-28T00:51:42;11.73;;;4.93;;
39518;SDS011;25200;53.394;10.414;2023-02-28T00:54:08;11.30;;;4.35;;
39518;SDS011;25200;53.394;10.414;2023-02-28T00:56:34;11.18;;;4.47;;
39518;SDS011;25200;53.394;10.414;2023-02-28T00:58:59;8.55;;;4.40;;
39518;SDS011;25200;53.394;10.414;2023-02-28T01:01:25;11.65;;;4.68;;
39518;SDS011;25200;53.394;10.414;2023-02-28T01:03:51;10.82;;;4.53;;
39518;SDS011;25200;53.394;10.414;2023-02-28T01:06:16;10.13;;;4.40;;
39518;SDS011;25200;53.394;10.414;2023-02-28T01:08:42;10.65;;;3.95;;
39518;SDS011;25200;53.394;10.414;2023-02-28T01:11:08;11.23;;;4.03;;
39518;SDS011;25200;53.394;10.414;2023-02-28T01:13:35;8.52;;;3.80;;
39518;SDS011;25200;53.394;10.414;2023-02-28T01:16:01;9.73;;;3.47;;
39518;SDS011;25200;53.394;10.414;2023-02-28T01:18:27;8.00;;;3.60;;
39518;SDS011;25200;53.394;10.414;2023-02-28T01:20:53;9.20;;;3.33;;
39518;SDS011;25200;53.394;10.414;2023-02-28T01:23:20;7.97;;;3.40;;
39518;SDS011;25200;53.394;10.414;2023-02-28T01:25:48;7.53;;;3.30;;
39518;SDS011;25200;53.394;10.414;2023-02-28T01:28:16;7.93;;;3.45;;
39518;SDS011;25200;53.394;10.414;2023-02-28T01:30:42;6.57;;;3.30;;
39518;SDS011;25200;53.394;10.414;2023-02-28T01:33:12;6.70;;;3.42;;
39518;SDS011;25200;53.394;10.414;2023-02-28T01:35:37;11.13;;;3.45;;
39518;SDS011;25200;53.394;10.414;2023-02-28T01:38:03;7.72;;;3.40;;
39518;SDS011;25200;53.394;10.414;2023-02-28T01:40:28;7.88;;;3.17;;
39518;SDS011;25200;53.394;10.414;2023-02-28T01:42:54;8.27;;;3.53;;
39518;SDS011;25200;53.394;10.414;2023-02-28T01:45:29;8.38;;;3.67;;
39518;SDS011;25200;53.394;10.414;2023-02-28T01:48:04;6.28;;;2.63;;
39518;SDS011;25200;53.394;10.414;2023-02-28T01:50:34;7.80;;;3.08;;
39518;SDS011;25200;53.394;10.414;2023-02-28T01:53:05;7.13;;;3.40;;
39518;SDS011;25200;53.394;10.414;2023-02-28T01:55:34;10.57;;;3.85;;
39518;SDS011;25200;53.394;10.414;2023-02-28T01:58:02;8.52;;;3.75;;
39518;SDS011;25200;53.394;10.414;2023-02-28T02:00:31;7.93;;;3.40;;
39518;SDS011;25200;53.394;10.414;2023-02-28T02:02:57;9.15;;;4.15;;
39518;SDS011;25200;53.394;10.414;2023-02-28T02:05:26;8.70;;;3.67;;
39518;SDS011;25200;53.394;10.414;2023-02-28T02:07:56;7.68;;;3.53;;
39518;SDS011;25200;53.394;10.414;2023-02-28T02:10:39;10.32;;;3.75;;
39518;SDS011;25200;53.394;10.414;2023-02-28T02:13:42;7.90;;;3.47;;
39518;SDS011;25200;53.394;10.414;2023-02-28T02:37:02;9.55;;;3.53;;
39518;SDS011;25200;53.394;10.414;2023-02-28T02:39:37;9.07;;;3.50;;
39518;SDS011;25200;53.394;10.414;2023-02-28T02:42:12;8.88;;;3.38;;
39518;SDS011;25200;53.394;10.414;2023-02-28T02:44:48;11.60;;;3.63;;
39518;SDS011;25200;53.394;10.414;2023-02-28T02:47:19;7.70;;;2.97;;
39518;SDS011;25200;53.394;10.414;2023-02-28T02:49:48;8.63;;;3.13;;
39518;SDS011;25200;53.394;10.414;2023-02-28T02:52:17;8.15;;;3.67;;
39518;SDS011;25200;53.394;10.414;2023-02-28T02:54:47;12.77;;;3.60;;
39518;SDS011;25200;53.394;10.414;2023-02-28T02:57:18;5.90;;;3.10;;
39518;SDS011;25200;53.394;10.414;2023-02-28T02:59:48;9.73;;;4.20;;
39518;SDS011;25200;53.394;10.414;2023-02-28T03:02:15;7.72;;;3.65;;
39518;SDS011;25200;53.394;10.414;2023-02-28T03:04:45;6.10;;;3.28;;
39518;SDS011;25200;53.394;10.414;2023-02-28T03:07:15;8.68;;;3.42;;
39518;SDS011;25200;53.394;10.414;2023-02-28T03:09:49;7.65;;;3.35;;
39518;SDS011;25200;53.394;10.414;2023-02-28T03:12:16;6.85;;;3.38;;
39518;SDS011;25200;53.394;10.414;2023-02-28T03:25:56;7.65;;;3.40;;
39518;SDS011;25200;53.394;10.414;2023-02-28T03:36:20;9.65;;;3.00;;
39518;SDS011;25200;53.394;10.414;2023-02-28T03:39:11;9.68;;;3.47;;
39518;SDS011;25200;53.394;10.414;2023-02-28T03:41:59;6.95;;;3.13;;
39518;SDS011;25200;53.394;10.414;2023-02-28T03:44:41;6.88;;;3.13;;
39518;SDS011;25200;53.394;10.414;2023-02-28T03:47:12;6.07;;;3.08;;
39518;SDS011;25200;53.394;10.414;2023-02-28T03:49:52;8.23;;;3.22;;
39518;SDS011;25200;53.394;10.414;2023-02-28T03:52:22;7.07;;;3.22;;
39518;SDS011;25200;53.394;10.414;2023-02-28T03:54:52;7.75;;;3.50;;
39518;SDS011;25200;53.394;10.414;2023-02-28T03:57:24;10.00;;;3.20;;
39518;SDS011;25200;53.394;10.414;2023-02-28T04:00:09;7.90;;;3.58;;
39518;SDS011;25200;53.394;10.414;2023-02-28T04:02:46;6.70;;;3.03;;
39518;SDS011;25200;53.394;10.414;2023-02-28T04:05:17;9.40;;;3.60;;
39518;SDS011;25200;53.394;10.414;2023-02-28T04:07:44;10.52;;;3.60;;
39518;SDS011;25200;53.394;10.414;2023-02-28T04:10:10;8.40;;;3.45;;
39518;SDS011;25200;53.394;10.414;2023-02-28T04:12:37;11.35;;;3.40;;
39518;SDS011;25200;53.394;10.414;2023-02-28T04:15:03;8.70;;;3.22;;
39518;SDS011;25200;53.394;10.414;2023-02-28T04:17:30;7.70;;;3.40;;
39518;SDS011;25200;53.394;10.414;2023-02-28T04:19:56;7.97;;;3.22;;
39518;SDS011;25200;53.394;10.414;2023-02-28T04:22:22;10.82;;;3.38;;
39518;SDS011;25200;53.394;10.414;2023-02-28T04:24:51;7.63;;;3.40;;
39518;SDS011;25200;53.394;10.414;2023-02-28T04:27:18;10.20;;;3.60;;
39518;SDS011;25200;53.394;10.414;2023-02-28T04:29:44;9.27;;;3.25;;
39518;SDS011;25200;53.394;10.414;2023-02-28T04:32:10;7.22;;;3.47;;
39518;SDS011;25200;53.394;10.414;2023-02-28T04:34:36;7.13;;;3.72;;
39518;SDS011;25200;53.394;10.414;2023-02-28T04:37:02;6.70;;;3.20;;
39518;SDS011;25200;53.394;10.414;2023-02-28T04:39:28;6.35;;;3.38;;
39518;SDS011;25200;53.394;10.414;2023-02-28T04:41:54;8.40;;;3.28;;
39518;SDS011;25200;53.394;10.414;2023-02-28T04:44:20;6.60;;;3.22;;
39518;SDS011;25200;53.394;10.414;2023-02-28T04:46:47;6.55;;;3.47;;
39518;SDS011;25200;53.394;10.414;2023-02-28T04:49:13;11.30;;;3.53;;
39518;SDS011;25200;53.394;10.414;2023-02-28T04:51:40;9.05;;;3.97;;
39518;SDS011;25200;53.394;10.414;2023-02-28T04:54:06;9.15;;;3.33;;
39518;SDS011;25200;53.394;10.414;2023-02-28T04:56:32;11.48;;;4.00;;
39518;SDS011;25200;53.394;10.414;2023-02-28T04:58:58;10.40;;;3.60;;
39518;SDS011;25200;53.394;10.414;2023-02-28T05:01:25;9.38;;;3.78;;
39518;SDS011;25200;53.394;10.414;2023-02-28T05:03:56;10.23;;;4.20;;
39518;SDS011;25200;53.394;10.414;2023-02-28T05:06:23;9.75;;;4.07;;
39518;SDS011;25200;53.394;10.414;2023-02-28T05:08:50;12.27;;;3.90;;
39518;SDS011;25200;53.394;10.414;2023-02-28T05:11:21;10.13;;;4.07;;
39518;SDS011;25200;53.394;10.414;2023-02-28T05:13:49;8.32;;;3.67;;
39518;SDS011;25200;53.394;10.414;2023-02-28T05:16:15;7.30;;;3.38;;
39518;SDS011;25200;53.394;10.414;2023-02-28T05:18:42;8.38;;;3.65;;
39518;SDS011;25200;53.394;10.414;2023-02-28T05:23:49;8.98;;;3.80;;
39518;SDS011;25200;53.394;10.414;2023-02-28T05:26:14;8.55;;;4.03;;
39518;SDS011;25200;53.394;10.414;2023-02-28T05:28:40;9.00;;;3.72;;
39518;SDS011;25200;53.394;10.414;2023-02-28T05:31:06;7.45;;;3.53;;
39518;SDS011;25200;53.394;10.414;2023-02-28T05:33:33;10.00;;;3.55;;
39518;SDS011;25200;53.394;10.414;2023-02-28T05:35:58;8.57;;;3.67;;
39518;SDS011;25200;53.394;10.414;2023-02-28T05:38:24;7.10;;;3.50;;
39518;SDS011;25200;53.394;10.414;2023-02-28T05:40:50;10.80;;;3.58;;
39518;SDS011;25200;53.394;10.414;2023-02-28T05:43:15;10.85;;;3.53;;
39518;SDS011;25200;53.394;10.414;2023-02-28T05:45:41;8.05;;;3.47;;
39518;SDS011;25200;53.394;10.414;2023-02-28T05:48:07;8.82;;;3.63;;
39518;SDS011;25200;53.394;10.414;2023-02-28T05:50:33;7.18;;;3.20;;
39518;SDS011;25200;53.394;10.414;2023-02-28T05:52:59;10.18;;;3.95;;
39518;SDS011;25200;53.394;10.414;2023-02-28T05:55:24;10.13;;;3.67;;
39518;SDS011;25200;53.394;10.414;2023-02-28T05:57:50;9.80;;;3.72;;
39518;SDS011;25200;53.394;10.414;2023-02-28T06:00:16;9.25;;;3.38;;
39518;SDS011;25200;53.394;10.414;2023-02-28T06:02:42;7.50;;;3.50;;
39518;SDS011;25200;53.394;10.414;2023-02-28T06:05:15;8.48;;;4.32;;
39518;SDS011;25200;53.394;10.414;2023-02-28T06:07:42;8.73;;;3.95;;
39518;SDS011;25200;53.394;10.414;2023-02-28T06:10:12;7.70;;;3.50;;
39518;SDS011;25200;53.394;10.414;2023-02-28T06:12:38;7.15;;;3.58;;
39518;SDS011;25200;53.394;10.414;2023-02-28T06:15:06;9.57;;;3.90;;
39518;SDS011;25200;53.394;10.414;2023-02-28T06:17:33;12.48;;;3.92;;
39518;SDS011;25200;53.394;10.414;2023-02-28T06:19:58;9.23;;;4.70;;
39518;SDS011;25200;53.394;10.414;2023-02-28T06:22:24;8.32;;;3.60;;
39518;SDS011;25200;53.394;10.414;2023-02-28T06:24:50;8.15;;;3.70;;
39518;SDS011;25200;53.394;10.414;2023-02-28T06:27:15;8.02;;;3.45;;
39518;SDS011;25200;53.394;10.414;2023-02-28T06:29:41;6.97;;;3.53;;
39518;SDS011;25200;53.394;10.414;2023-02-28T06:32:07;10.65;;;4.00;;
39518;SDS011;25200;53.394;10.414;2023-02-28T06:34:33;10.20;;;3.63;;
39518;SDS011;25200;53.394;10.414;2023-02-28T06:37:01;7.40;;;3.63;;
39518;SDS011;25200;53.394;10.414;2023-02-28T06:39:28;7.68;;;3.50;;
39518;SDS011;25200;53.394;10.414;2023-02-28T06:41:56;7.15;;;3.50;;
39518;SDS011;25200;53.394;10.414;2023-02-28T06:44:22;8.15;;;3.58;;
39518;SDS011;25200;53.394;10.414;2023-02-28T06:46:49;6.88;;;3.67;;
39518;SDS011;25200;53.394;10.414;2023-02-28T06:49:15;8.98;;;3.58;;
39518;SDS011;25200;53.394;10.414;2023-02-28T06:51:41;7.60;;;3.90;;
39518;SDS011;25200;53.394;10.414;2023-02-28T06:54:10;7.82;;;4.13;;
39518;SDS011;25200;53.394;10.414;2023-02-28T06:56:36;9.45;;;3.75;;
39518;SDS011;25200;53.394;10.414;2023-02-28T06:59:02;9.63;;;4.20;;
39518;SDS011;25200;53.394;10.414;2023-02-28T07:01:29;12.07;;;4.88;;
39518;SDS011;25200;53.394;10.414;2023-02-28T07:03:56;9.60;;;4.28;;
39518;SDS011;25200;53.394;10.414;2023-02-28T07:06:22;8.32;;;4.10;;
39518;SDS011;25200;53.394;10.414;2023-02-28T07:08:49;12.05;;;4.75;;
39518;SDS011;25200;53.394;10.414;2023-02-28T07:11:15;8.88;;;4.10;;
39518;SDS011;25200;53.394;10.414;2023-02-28T07:13:41;7.95;;;3.83;;
39518;SDS011;25200;53.394;10.414;2023-02-28T07:16:09;8.57;;;4.10;;
39518;SDS011;25200;53.394;10.414;2023-02-28T07:18:36;7.28;;;3.65;;
39518;SDS011;25200;53.394;10.414;2023-02-28T07:21:02;7.93;;;3.78;;
39518;SDS011;25200;53.394;10.414;2023-02-28T07:23:29;8.13;;;4.03;;
39518;SDS011;25200;53.394;10.414;2023-02-28T07:25:55;11.00;;;3.88;;
39518;SDS011;25200;53.394;10.414;2023-02-28T07:28:20;8.55;;;3.97;;
39518;SDS011;25200;53.394;10.414;2023-02-28T07:30:46;8.90;;;3.72;;
39518;SDS011;25200;53.394;10.414;2023-02-28T07:33:13;9.50;;;3.78;;
39518;SDS011;25200;53.394;10.414;2023-02-28T07:35:39;9.38;;;4.40;;
39518;SDS011;25200;53.394;10.414;2023-02-28T07:38:05;9.48;;;3.80;;
39518;SDS011;25200;53.394;10.414;2023-02-28T07:40:32;9.98;;;4.40;;
39518;SDS011;25200;53.394;10.414;2023-02-28T07:42:59;8.75;;;3.47;;
39518;SDS011;25200;53.394;10.414;2023-02-28T07:45:25;7.88;;;3.88;;
39518;SDS011;25200;53.394;10.414;2023-02-28T07:47:53;8.40;;;3.88;;
39518;SDS011;25200;53.394;10.414;2023-02-28T07:50:19;9.45;;;4.13;;
39518;SDS011;25200;53.394;10.414;2023-02-28T07:52:45;7.63;;;3.85;;
39518;SDS011;25200;53.394;10.414;2023-02-28T07:55:11;9.05;;;4.50;;
39518;SDS011;25200;53.394;10.414;2023-02-28T07:57:38;7.70;;;4.05;;
39518;SDS011;25200;53.394;10.414;2023-02-28T08:00:05;10.45;;;4.32;;
39518;SDS011;25200;53.394;10.414;2023-02-28T08:02:35;9.88;;;4.32;;
39518;SDS011;25200;53.394;10.414;2023-02-28T08:05:01;9.45;;;4.35;;
39518;SDS011;25200;53.394;10.414;2023-02-28T08:07:27;11.23;;;5.13;;
39518;SDS011;25200;53.394;10.414;2023-02-28T08:09:53;10.65;;;4.38;;
39518;SDS011;25200;53.394;10.414;2023-02-28T08:12:18;10.45;;;4.72;;
39518;SDS011;25200;53.394;10.414;2023-02-28T08:14:45;11.40;;;4.55;;
39518;SDS011;25200;53.394;10.414;2023-02-28T08:17:10;8.13;;;4.40;;
39518;SDS011;25200;53.394;10.414;2023-02-28T08:19:37;10.23;;;4.90;;
39518;SDS011;25200;53.394;10.414;2023-02-28T08:22:03;10.23;;;4.60;;
39518;SDS011;25200;53.394;10.414;2023-02-28T08:24:28;9.15;;;4.93;;
39518;SDS011;25200;53.394;10.414;2023-02-28T08:26:54;10.70;;;4.65;;
39518;SDS011;25200;53.394;10.414;2023-02-28T08:29:20;10.60;;;5.28;;
39518;SDS011;25200;53.394;10.414;2023-02-28T08:31:46;9.52;;;4.68;;
39518;SDS011;25200;53.394;10.414;2023-02-28T08:34:13;10.25;;;5.25;;
39518;SDS011;25200;53.394;10.414;2023-02-28T08:36:39;11.63;;;4.55;;
39518;SDS011;25200;53.394;10.414;2023-02-28T08:39:05;10.65;;;4.53;;
39518;SDS011;25200;53.394;10.414;2023-02-28T08:41:32;11.18;;;5.00;;
39518;SDS011;25200;53.394;10.414;2023-02-28T08:43:58;12.85;;;5.22;;
39518;SDS011;25200;53.394;10.414;2023-02-28T08:46:25;12.52;;;5.20;;
39518;SDS011;25200;53.394;10.414;2023-02-28T08:48:54;11.40;;;4.50;;
39518;SDS011;25200;53.394;10.414;2023-02-28T08:51:24;10.30;;;5.15;;
39518;SDS011;25200;53.394;10.414;2023-02-28T08:53:53;10.85;;;4.70;;
39518;SDS011;25200;53.394;10.414;2023-02-28T08:56:24;10.15;;;4.82;;
39518;SDS011;25200;53.394;10.414;2023-02-28T08:58:51;10.45;;;4.78;;
39518;SDS011;25200;53.394;10.414;2023-02-28T09:01:21;9.25;;;4.05;;
39518;SDS011;25200;53.394;10.414;2023-02-28T09:03:49;11.52;;;4.47;;
39518;SDS011;25200;53.394;10.414;2023-02-28T09:06:16;13.88;;;4.05;;
39518;SDS011;25200;53.394;10.414;2023-02-28T09:08:43;8.23;;;3.60;;
39518;SDS011;25200;53.394;10.414;2023-02-28T09:11:11;8.00;;;3.85;;
39518;SDS011;25200;53.394;10.414;2023-02-28T09:13:37;10.65;;;4.32;;
39518;SDS011;25200;53.394;10.414;2023-02-28T09:16:04;7.15;;;3.65;;
39518;SDS011;25200;53.394;10.414;2023-02-28T09:18:33;7.78;;;3.65;;
39518;SDS011;25200;53.394;10.414;2023-02-28T09:21:00;8.45;;;3.88;;
39518;SDS011;25200;53.394;10.414;2023-02-28T09:23:29;9.02;;;3.90;;
39518;SDS011;25200;53.394;10.414;2023-02-28T09:25:55;8.98;;;3.80;;
39518;SDS011;25200;53.394;10.414;2023-02-28T09:28:21;8.93;;;3.90;;
39518;SDS011;25200;53.394;10.414;2023-02-28T09:30:49;7.97;;;3.38;;
39518;SDS011;25200;53.394;10.414;2023-02-28T09:33:16;9.77;;;3.67;;
39518;SDS011;25200;53.394;10.414;2023-02-28T09:35:43;7.85;;;3.38;;
39518;SDS011;25200;53.394;10.414;2023-02-28T09:38:09;9.05;;;3.60;;
39518;SDS011;25200;53.394;10.414;2023-02-28T09:41:19;7.97;;;3.15;;
39518;SDS011;25200;53.394;10.414;2023-02-28T09:43:32;7.78;;;2.83;;
39518;SDS011;25200;53.394;10.414;2023-02-28T09:48:54;5.93;;;2.85;;
39518;SDS011;25200;53.394;10.414;2023-02-28T09:54:04;8.38;;;3.42;;
39518;SDS011;25200;53.394;10.414;2023-02-28T10:10:02;4.45;;;2.00;;
39518;SDS011;25200;53.394;10.414;2023-02-28T10:12:33;6.85;;;1.90;;
39518;SDS011;25200;53.394;10.414;2023-02-28T10:15:04;4.20;;;1.80;;
39518;SDS011;25200;53.394;10.414;2023-02-28T10:17:38;3.63;;;1.75;;
39518;SDS011;25200;53.394;10.414;2023-02-28T10:20:12;4.20;;;1.60;;
39518;SDS011;25200;53.394;10.414;2023-02-28T10:22:53;3.90;;;1.70;;
39518;SDS011;25200;53.394;10.414;2023-02-28T10:25:25;3.95;;;1.63;;
39518;SDS011;25200;53.394;10.414;2023-02-28T10:27:53;4.95;;;1.67;;
39518;SDS011;25200;53.394;10.414;2023-02-28T10:30:22;2.65;;;1.23;;
39518;SDS011;25200;53.394;10.414;2023-02-28T10:32:51;2.83;;;1.35;;
39518;SDS011;25200;53.394;10.414;2023-02-28T10:35:22;3.35;;;1.50;;
39518;SDS011;25200;53.394;10.414;2023-02-28T10:37:58;4.40;;;1.65;;
39518;SDS011;25200;53.394;10.414;2023-02-28T10:42:59;2.50;;;1.08;;
39518;SDS011;25200;53.394;10.414;2023-02-28T10:45:25;2.47;;;0.98;;
39518;SDS011;25200;53.394;10.414;2023-02-28T10:47:55;3.38;;;1.00;;
39518;SDS011;25200;53.394;10.414;2023-02-28T11:04:02;3.10;;;1.02;;
39518;SDS011;25200;53.394;10.414;2023-02-28T11:06:29;2.47;;;0.82;;
39518;SDS011;25200;53.394;10.414;2023-02-28T11:09:02;3.45;;;0.90;;
39518;SDS011;25200;53.394;10.414;2023-02-28T11:11:32;2.43;;;0.97;;
39518;SDS011;25200;53.394;10.414;2023-02-28T11:14:16;2.70;;;0.95;;
39518;SDS011;25200;53.394;10.414;2023-02-28T11:17:00;3.97;;;1.63;;
39518;SDS011;25200;53.394;10.414;2023-02-28T11:19:50;1.85;;;0.98;;
39518;SDS011;25200;53.394;10.414;2023-02-28T11:22:19;5.28;;;1.42;;
39518;SDS011;25200;53.394;10.414;2023-02-28T11:24:49;2.28;;;1.10;;
39518;SDS011;25200;53.394;10.414;2023-02-28T11:29:56;3.90;;;1.48;;
39518;SDS011;25200;53.394;10.414;2023-02-28T11:32:26;5.95;;;1.55;;
39518;SDS011;25200;53.394;10.414;2023-02-28T11:37:36;2.45;;;1.17;;
39518;SDS011;25200;53.394;10.414;2023-02-28T11:40:13;3.70;;;1.52;;
39518;SDS011;25200;53.394;10.414;2023-02-28T12:07:46;4.45;;;1.75;;
39518;SDS011;25200;53.394;10.414;2023-02-28T12:10:21;3.58;;;1.75;;
39518;SDS011;25200;53.394;10.414;2023-02-28T12:12:54;3.75;;;1.50;;
39518;SDS011;25200;53.394;10.414;2023-02-28T12:15:46;5.03;;;1.67;;
39518;SDS011;25200;53.394;10.414;2023-02-28T12:21:46;4.03;;;1.58;;
39518;SDS011;25200;53.394;10.414;2023-02-28T12:27:03;4.68;;;1.80;;
39518;SDS011;25200;53.394;10.414;2023-02-28T12:29:35;3.70;;;1.70;;
39518;SDS011;25200;53.394;10.414;2023-02-28T12:32:27;3.25;;;1.52;;
39518;SDS011;25200;53.394;10.414;2023-02-28T12:34:58;3.22;;;1.65;;
39518;SDS011;25200;53.394;10.414;2023-02-28T12:43:06;3.55;;;1.63;;
39518;SDS011;25200;53.394;10.414;2023-02-28T12:45:44;4.78;;;1.80;;
39518;SDS011;25200;53.394;10.414;2023-02-28T12:48:25;3.50;;;1.60;;
39518;SDS011;25200;53.394;10.414;2023-02-28T12:50:56;6.57;;;1.90;;
39518;SDS011;25200;53.394;10.414;2023-02-28T12:56:24;5.05;;;1.90;;
39518;SDS011;25200;53.394;10.414;2023-02-28T13:01:52;4.65;;;1.92;;
39518;SDS011;25200;53.394;10.414;2023-02-28T13:09:54;3.05;;;1.52;;
39518;SDS011;25200;53.394;10.414;2023-02-28T13:12:21;4.78;;;1.90;;
39518;SDS011;25200;53.394;10.414;2023-02-28T13:14:48;5.43;;;1.88;;
39518;SDS011;25200;53.394;10.414;2023-02-28T13:17:20;3.30;;;1.60;;
39518;SDS011;25200;53.394;10.414;2023-02-28T13:24:51;3.70;;;1.80;;
39518;SDS011;25200;53.394;10.414;2023-02-28T13:27:37;3.95;;;1.70;;
39518;SDS011;25200;53.394;10.414;2023-02-28T13:51:48;4.40;;;1.60;;
39518;SDS011;25200;53.394;10.414;2023-02-28T14:08:43;2.35;;;1.25;;
39518;SDS011;25200;53.394;10.414;2023-02-28T14:11:26;3.70;;;1.60;;
39518;SDS011;25200;53.394;10.414;2023-02-28T14:13:58;2.92;;;1.27;;
39518;SDS011;25200;53.394;10.414;2023-02-28T14:16:25;2.38;;;1.15;;
39518;SDS011;25200;53.394;10.414;2023-02-28T14:18:58;3.35;;;1.50;;
39518;SDS011;25200;53.394;10.414;2023-02-28T14:21:30;3.92;;;1.60;;
39518;SDS011;25200;53.394;10.414;2023-02-28T14:37:38;4.72;;;1.70;;
39518;SDS011;25200;53.394;10.414;2023-02-28T14:43:04;4.10;;;1.60;;
39518;SDS011;25200;53.394;10.414;2023-02-28T14:45:32;5.55;;;1.50;;
39518;SDS011;25200;53.394;10.414;2023-02-28T14:47:59;3.55;;;1.30;;
39518;SDS011;25200;53.394;10.414;2023-02-28T14:50:29;2.83;;;1.40;;
39518;SDS011;25200;53.394;10.414;2023-02-28T14:52:57;2.45;;;1.17;;
39518;SDS011;25200;53.394;10.414;2023-02-28T14:55:28;2.80;;;1.27;;
39518;SDS011;25200;53.394;10.414;2023-02-28T14:58:00;4.05;;;1.42;;
39518;SDS011;25200;53.394;10.414;2023-02-28T15:00:33;3.58;;;1.50;;
39518;SDS011;25200;53.394;10.414;2023-02-28T15:03:11;2.72;;;1.30;;
39518;SDS011;25200;53.394;10.414;2023-02-28T15:05:52;3.92;;;1.42;;
39518;SDS011;25200;53.394;10.414;2023-02-28T15:08:26;2.92;;;1.40;;
39518;SDS011;25200;53.394;10.414;2023-02-28T15:10:55;4.03;;;1.60;;
39518;SDS011;25200;53.394;10.414;2023-02-28T15:16:19;3.58;;;1.60;;
39518;SDS011;25200;53.394;10.414;2023-02-28T15:18:52;2.83;;;1.33;;
39518;SDS011;25200;53.394;10.414;2023-02-28T15:21:26;4.07;;;1.40;;
39518;SDS011;25200;53.394;10.414;2023-02-28T15:23:59;4.57;;;1.70;;
39518;SDS011;25200;53.394;10.414;2023-02-28T15:26:42;3.42;;;1.33;;
39518;SDS011;25200;53.394;10.414;2023-02-28T15:29:15;3.15;;;1.40;;
39518;SDS011;25200;53.394;10.414;2023-02-28T15:31:45;4.15;;;1.45;;
39518;SDS011;25200;53.394;10.414;2023-02-28T15:34:20;2.53;;;1.30;;
39518;SDS011;25200;53.394;10.414;2023-02-28T15:36:51;4.28;;;1.55;;
39518;SDS011;25200;53.394;10.414;2023-02-28T15:39:25;3.05;;;1.42;;
39518;SDS011;25200;53.394;10.414;2023-02-28T15:42:09;3.20;;;1.42;;
39518;SDS011;25200;53.394;10.414;2023-02-28T15:44:42;2.22;;;1.23;;
39518;SDS011;25200;53.394;10.414;2023-02-28T15:47:16;3.88;;;1.70;;
39518;SDS011;25200;53.394;10.414;2023-02-28T15:55:08;3.33;;;1.40;;
39518;SDS011;25200;53.394;10.414;2023-02-28T15:57:43;3.53;;;1.50;;
39518;SDS011;25200;53.394;10.414;2023-02-28T16:00:11;4.35;;;1.67;;
39518;SDS011;25200;53.394;10.414;2023-02-28T16:02:40;4.82;;;1.77;;
39518;SDS011;25200;53.394;10.414;2023-02-28T16:07:35;4.10;;;1.70;;
39518;SDS011;25200;53.394;10.414;2023-02-28T16:10:04;5.38;;;2.03;;
39518;SDS011;25200;53.394;10.414;2023-02-28T16:12:31;5.07;;;1.70;;
39518;SDS011;25200;53.394;10.414;2023-02-28T16:14:59;3.75;;;1.80;;
39518;SDS011;25200;53.394;10.414;2023-02-28T16:17:34;5.75;;;1.60;;
39518;SDS011;25200;53.394;10.414;2023-02-28T16:20:45;4.72;;;1.83;;
39518;SDS011;25200;53.394;10.414;2023-02-28T16:22:54;4.03;;;1.70;;
39518;SDS011;25200;53.394;10.414;2023-02-28T16:25:23;4.95;;;1.95;;
39518;SDS011;25200;53.394;10.414;2023-02-28T16:27:52;5.20;;;1.70;;
39518;SDS011;25200;53.394;10.414;2023-02-28T16:30:23;4.45;;;1.73;;
39518;SDS011;25200;53.394;10.414;2023-02-28T16:32:51;4.53;;;2.05;;
39518;SDS011;25200;53.394;10.414;2023-02-28T16:35:19;3.70;;;1.80;;
39518;SDS011;25200;53.394;10.414;2023-02-28T16:37:45;3.70;;;1.55;;
39518;SDS011;25200;53.394;10.414;2023-02-28T16:40:18;3.58;;;1.60;;
39518;SDS011;25200;53.394;10.414;2023-02-28T16:42:46;5.75;;;1.98;;
39518;SDS011;25200;53.394;10.414;2023-02-28T16:45:18;3.83;;;1.67;;
39518;SDS011;25200;53.394;10.414;2023-02-28T16:47:48;4.07;;;1.88;;
39518;SDS011;25200;53.394;10.414;2023-02-28T16:50:15;3.95;;;1.77;;
39518;SDS011;25200;53.394;10.414;2023-02-28T16:52:45;4.60;;;2.00;;
39518;SDS011;25200;53.394;10.414;2023-02-28T16:55:12;6.50;;;2.70;;
39518;SDS011;25200;53.394;10.414;2023-02-28T16:57:38;7.82;;;3.50;;
39518;SDS011;25200;53.394;10.414;2023-02-28T17:00:06;9.30;;;3.65;;
39518;SDS011;25200;53.394;10.414;2023-02-28T17:02:34;11.68;;;3.33;;
39518;SDS011;25200;53.394;10.414;2023-02-28T17:05:00;6.65;;;2.80;;
39518;SDS011;25200;53.394;10.414;2023-02-28T17:07:25;5.18;;;2.35;;
39518;SDS011;25200;53.394;10.414;2023-02-28T17:09:51;9.50;;;2.63;;
39518;SDS011;25200;53.394;10.414;2023-02-28T17:12:17;6.68;;;2.75;;
39518;SDS011;25200;53.394;10.414;2023-02-28T17:14:42;6.97;;;3.13;;
39518;SDS011;25200;53.394;10.414;2023-02-28T17:17:09;8.18;;;4.25;;
39518;SDS011;25200;53.394;10.414;2023-02-28T17:19:42;6.30;;;3.17;;
39518;SDS011;25200;53.394;10.414;2023-02-28T17:22:08;6.72;;;3.65;;
39518;SDS011;25200;53.394;10.414;2023-02-28T17:24:35;7.03;;;3.33;;
39518;SDS011;25200;53.394;10.414;2023-02-28T17:27:00;7.53;;;3.50;;
39518;SDS011;25200;53.394;10.414;2023-02-28T17:29:26;6.85;;;3.40;;
39518;SDS011;25200;53.394;10.414;2023-02-28T17:31:52;8.68;;;3.60;;
39518;SDS011;25200;53.394;10.414;2023-02-28T17:34:18;6.40;;;3.17;;
39518;SDS011;25200;53.394;10.414;2023-02-28T17:36:45;8.68;;;3.05;;
39518;SDS011;25200;53.394;10.414;2023-02-28T17:39:12;10.90;;;3.20;;
39518;SDS011;25200;53.394;10.414;2023-02-28T17:41:40;7.95;;;2.83;;
39518;SDS011;25200;53.394;10.414;2023-02-28T17:44:07;9.30;;;2.63;;
39518;SDS011;25200;53.394;10.414;2023-02-28T17:46:33;7.05;;;2.63;;
39518;SDS011;25200;53.394;10.414;2023-02-28T17:48:59;7.28;;;2.40;;
39518;SDS011;25200;53.394;10.414;2023-02-28T17:51:25;7.22;;;2.67;;
39518;SDS011;25200;53.394;10.414;2023-02-28T17:53:51;8.27;;;3.00;;
39518;SDS011;25200;53.394;10.414;2023-02-28T17:56:19;6.65;;;3.30;;
39518;SDS011;25200;53.394;10.414;2023-02-28T17:58:46;6.93;;;3.00;;
39518;SDS011;25200;53.394;10.414;2023-02-28T18:01:12;10.60;;;3.53;;